Repubblicadelbrasile — IBZB — position and weather

sailwx.info

Track history (hours):
 
Tides and Currents Weather Stations Pressure Air Temp Water Temp Dewpoint Dewpoint Depression Visibility Wind Speed Wind Dir Waves Ship Positions

Repubblicadelbrasile

Last reported at 2018-Jun-17 13:56 UTC. Time now 2018-Jun-22 13:31 UTC.
Position N 05°28' E 000°31'.

Length 210 m; draft 8.6 m.

Type: Ship (hazmat cat A). MMSI: 247310000.

Date/timePositionNaut miles runAvg speedWind from/ knotsBaromVisibWave heightAir tempDewpointWater temp
2018-Jun-17 13:56N 05°28' E 000°31'818.8
2018-Jun-17 13:30N 05°25' E 000°23'918.8
2018-Jun-17 13:01N 05°22' E 000°14'918.8
2018-Jun-17 12:31N 05°19' E 000°05'918.7
2018-Jun-17 12:01N 05°16' W 000°04'918.5
2018-Jun-17 11:31N 05°14' W 000°13'918.3
2018-Jun-17 11:00N 05°11' W 000°21'  
2018-Jun-10 01:14N 28°05' W 013°43'1518.3
2018-Jun-10 00:24N 28°19' W 013°36'1118.2
2018-Jun-09 23:47N 28°29' W 013°31'617.9
2018-Jun-09 23:28N 28°34' W 013°28'817.8
2018-Jun-09 22:59N 28°42' W 013°24'917.8
2018-Jun-09 22:30N 28°50' W 013°20'917.6
2018-Jun-09 22:00N 28°58' W 013°16'  
2018-Jun-07 17:09N 35°58' W 005°33'215.6
2018-Jun-07 17:00N 35°58' W 005°31'715.0
2018-Jun-07 16:31N 36°01' W 005°22'815.0
2018-Jun-07 16:00N 36°03' W 005°13'  
Track history (hours):
 
Tides and Currents Weather Stations Pressure Air Temp Water Temp Dewpoint Dewpoint Depression Visibility Wind Speed Wind Dir Waves Ship Positions

Repubblicadelbrasile

Last reported at 2018-Jun-17 13:56 UTC. Time now 2018-Jun-22 13:31 UTC.
Position N 05°28' E 000°31'.

Length 210 m; draft 8.6 m.

Type: Ship (hazmat cat A). MMSI: 247310000.

Date/timePositionNaut miles runAvg speedWind from/ knotsBaromVisibWave heightAir tempDewpointWater temp
2018-Jun-17 13:56N 05°28' E 000°31'818.8
2018-Jun-17 13:30N 05°25' E 000°23'918.8
2018-Jun-17 13:01N 05°22' E 000°14'918.8
2018-Jun-17 12:31N 05°19' E 000°05'918.7
2018-Jun-17 12:01N 05°16' W 000°04'918.5
2018-Jun-17 11:31N 05°14' W 000°13'918.3
2018-Jun-17 11:00N 05°11' W 000°21'  
2018-Jun-10 01:14N 28°05' W 013°43'1518.3
2018-Jun-10 00:24N 28°19' W 013°36'1118.2
2018-Jun-09 23:47N 28°29' W 013°31'617.9
2018-Jun-09 23:28N 28°34' W 013°28'817.8
2018-Jun-09 22:59N 28°42' W 013°24'917.8
2018-Jun-09 22:30N 28°50' W 013°20'917.6
2018-Jun-09 22:00N 28°58' W 013°16'  
2018-Jun-07 17:09N 35°58' W 005°33'215.6
2018-Jun-07 17:00N 35°58' W 005°31'715.0
2018-Jun-07 16:31N 36°01' W 005°22'815.0
2018-Jun-07 16:00N 36°03' W 005°13'  

Dump ship's entire track history